This is the latest recevied weather packets stored in our database for station/object KK7RJD. If no packets are shown the sender has not sent any weather packets the latest 10 day(s).
| Time | Temp. | Humidity | Pressure | Rain* | Wind** | Luminosity | Snow |
|---|---|---|---|---|---|---|---|
| 1777586408 | 13.33° C | 29% | 1020 hPa | 0 mm | - | 675 W/m² | - |
| 1777586107 | 13.33° C | 29% | 1020.3 hPa | 0 mm | - | 201 W/m² | - |
| 1777585805 | 13.89° C | 27% | 1020.1 hPa | 0 mm | - | 195 W/m² | - |
| 1777585506 | 15° C | 26% | 1020.2 hPa | 0 mm | - | 241 W/m² | - |
| 1777585201 | 15.56° C | 26% | 1020.2 hPa | 0 mm | - | 846 W/m² | - |
| 1777584897 | 15° C | 28% | 1020.2 hPa | 0 mm | - | 784 W/m² | - |
| 1777584595 | 14.44° C | 25% | 1020.3 hPa | 0 mm | - | 793 W/m² | - |
| 1777584291 | 13.89° C | 29% | 1020.5 hPa | 0 mm | - | 833 W/m² | - |
| 1777583987 | 14.44° C | 28% | 1020.5 hPa | 0 mm | - | 233 W/m² | - |
| 1777583681 | 14.44° C | 26% | 1020.3 hPa | 0 mm | - | 864 W/m² | - |
| 1777583381 | 15° C | 26% | 1020.7 hPa | 0 mm | - | 921 W/m² | - |
| 1777583080 | 14.44° C | 27% | 1020.7 hPa | 0 mm | - | 894 W/m² | - |
| 1777582777 | 14.44° C | 28% | 1020.7 hPa | 0 mm | - | 780 W/m² | - |
| 1777582473 | 15° C | 25% | 1020.7 hPa | 0 mm | - | 845 W/m² | - |
| 1777582173 | 15° C | 26% | 1020.7 hPa | 0 mm | - | 692 W/m² | - |
| 1777581872 | 14.44° C | 29% | 1020.8 hPa | 0 mm | - | 769 W/m² | - |
| 1777581566 | 13.89° C | 27% | 1020.7 hPa | 0 mm | - | 943 W/m² | - |
| 1777581261 | 13.89° C | 28% | 1020.6 hPa | 0 mm | - | 812 W/m² | - |
| 1777580956 | 12.78° C | 31% | 1020.8 hPa | 0 mm | - | 939 W/m² | - |
| 1777580651 | 13.33° C | 28% | 1020.9 hPa | 0 mm | - | 714 W/m² | - |
| 1777580347 | 13.33° C | 29% | 1020.7 hPa | 0 mm | - | 277 W/m² | - |
| 1777580043 | 13.33° C | 28% | 1020.7 hPa | 0 mm | - | 298 W/m² | - |
| 1777579740 | 13.89° C | 27% | 1020.9 hPa | 0 mm | - | 322 W/m² | - |
| 1777579437 | 13.89° C | 27% | 1020.8 hPa | 0 mm | - | 530 W/m² | - |
| 1777579133 | 13.89° C | 26% | 1020.9 hPa | 0 mm | - | 1008 W/m² | - |
* Rain latest hour (hover to see other rain measurements)
** Current wind speed in m/s (hover to see current wind gust speed)